createdAt,value
2022-09-27T00:01:55.783Z,56.28
2022-09-27T00:04:24.189Z,56.32
2022-09-27T00:06:52.934Z,56.33
2022-09-27T00:09:29.287Z,56.43
2022-09-27T00:11:58.755Z,56.34
2022-09-27T00:14:26.950Z,56.44
2022-09-27T00:17:30.312Z,56.47
2022-09-27T00:19:56.195Z,56.36
2022-09-27T00:22:24.483Z,56.26
2022-09-27T00:24:52.562Z,56.40
2022-09-27T00:27:21.224Z,56.21
2022-09-27T00:29:49.592Z,56.24
2022-09-27T00:32:18.979Z,55.99
2022-09-27T00:34:47.329Z,55.96
2022-09-27T00:37:15.361Z,55.98
2022-09-27T00:39:43.326Z,56.04
2022-09-27T00:42:12.285Z,56.32
2022-09-27T00:45:12.894Z,56.21
2022-09-27T00:47:50.590Z,56.01
2022-09-27T00:50:27.647Z,56.00
2022-09-27T00:53:05.314Z,55.76
2022-09-27T00:55:37.793Z,55.45
2022-09-27T00:58:07.066Z,55.24
2022-09-27T01:00:35.495Z,54.94
2022-09-27T01:03:08.534Z,55.14
2022-09-27T01:05:36.567Z,54.98
2022-09-27T01:08:05.515Z,54.95
2022-09-27T01:10:42.088Z,54.98
2022-09-27T01:13:20.303Z,54.83
2022-09-27T01:15:58.931Z,54.78
2022-09-27T01:18:35.738Z,54.97
2022-09-27T01:21:40.907Z,55.05
2022-09-27T01:24:53.618Z,55.10
2022-09-27T01:28:01.350Z,54.93
2022-09-27T01:30:39.603Z,54.93
2022-09-27T01:33:20.235Z,55.01
2022-09-27T01:36:00.246Z,55.26
2022-09-27T01:38:35.672Z,55.40
2022-09-27T01:41:10.699Z,55.51
2022-09-27T01:44:03.790Z,55.63
2022-09-27T01:46:41.786Z,55.53
2022-09-27T01:49:37.161Z,55.66
2022-09-27T01:52:09.655Z,55.58
2022-09-27T01:54:44.894Z,55.69
2022-09-27T01:57:40.642Z,55.71
2022-09-27T02:00:17.376Z,55.93
2022-09-27T02:02:55.713Z,55.98
2022-09-27T02:05:44.954Z,55.97
2022-09-27T02:08:50.421Z,56.23
2022-09-27T02:11:28.763Z,56.05
2022-09-27T02:14:16.826Z,56.07
2022-09-27T02:17:05.095Z,56.05
2022-09-27T02:19:42.129Z,56.51
2022-09-27T02:22:18.308Z,56.47
2022-09-27T02:24:50.944Z,56.65
2022-09-27T02:27:25.798Z,56.80
2022-09-27T02:30:02.316Z,57.29
2022-09-27T02:32:33.646Z,57.31
2022-09-27T02:35:14.004Z,57.83
2022-09-27T02:37:47.347Z,57.75
2022-09-27T02:40:17.055Z,57.94
2022-09-27T02:42:48.352Z,58.26
2022-09-27T02:45:20.920Z,58.59
2022-09-27T02:48:07.450Z,58.70
2022-09-27T02:51:25.211Z,59.56
2022-09-27T02:54:10.426Z,60.33
2022-09-27T02:57:08.975Z,60.58
2022-09-27T02:59:54.450Z,60.63
2022-09-27T03:02:37.241Z,60.64
2022-09-27T03:05:43.631Z,61.18
2022-09-27T03:08:16.111Z,60.85
2022-09-27T03:10:44.622Z,60.91
2022-09-27T03:13:13.370Z,61.08
2022-09-27T03:15:42.098Z,61.40
2022-09-27T03:18:30.102Z,61.30
2022-09-27T03:21:16.858Z,60.77
2022-09-27T03:23:46.358Z,60.61
2022-09-27T03:26:14.522Z,60.49
2022-09-27T03:28:42.602Z,60.66
2022-09-27T03:31:10.789Z,61.35
2022-09-27T03:33:58.733Z,61.62
2022-09-27T03:36:27.449Z,61.49
2022-09-27T03:38:56.790Z,61.11
2022-09-27T03:41:24.776Z,60.90
2022-09-27T03:43:53.163Z,61.26
2022-09-27T03:46:21.568Z,61.40
2022-09-27T03:48:49.722Z,61.40
2022-09-27T03:51:17.791Z,61.85
2022-09-27T03:53:45.834Z,61.55
2022-09-27T03:56:15.763Z,62.17
2022-09-27T03:58:43.828Z,62.03
2022-09-27T04:01:16.073Z,62.32
2022-09-27T04:03:46.555Z,62.77
2022-09-27T04:06:30.757Z,62.90
2022-09-27T04:08:59.151Z,63.90
2022-09-27T04:11:39.810Z,64.22
2022-09-27T04:14:08.917Z,64.19
2022-09-27T04:16:47.416Z,64.07
2022-09-27T04:19:28.742Z,64.67
2022-09-27T04:22:10.871Z,64.10
2022-09-27T04:24:39.349Z,64.42
2022-09-27T04:27:28.680Z,64.16
2022-09-27T04:29:57.056Z,63.77
2022-09-27T04:32:45.822Z,63.65
2022-09-27T04:35:49.800Z,63.13
2022-09-27T04:38:20.270Z,63.30
2022-09-27T04:40:49.184Z,64.03
2022-09-27T04:43:19.161Z,63.66
2022-09-27T04:45:47.717Z,64.19
2022-09-27T04:48:15.901Z,63.99
2022-09-27T04:50:44.104Z,64.22
2022-09-27T04:53:15.125Z,64.71
2022-09-27T04:55:47.397Z,64.58
2022-09-27T04:58:15.686Z,65.41
2022-09-27T05:00:45.644Z,66.11
2022-09-27T05:03:37.226Z,65.48
2022-09-27T05:06:13.616Z,66.05
2022-09-27T05:08:42.945Z,66.63
2022-09-27T05:11:19.836Z,66.81
2022-09-27T05:14:22.909Z,68.07
2022-09-27T05:17:10.558Z,70.68
2022-09-27T05:20:03.505Z,72.80
2022-09-27T05:22:45.133Z,74.10
2022-09-27T05:25:13.911Z,73.67
2022-09-27T05:27:42.040Z,75.50
2022-09-27T05:30:12.185Z,78.75
2022-09-27T05:32:53.885Z,82.70
2022-09-27T05:35:28.048Z,86.48
2022-09-27T05:38:01.570Z,88.51
2022-09-27T05:40:47.870Z,94.04
2022-09-27T05:43:17.155Z,99.54
2022-09-27T05:45:46.299Z,100.00
2022-09-27T05:48:18.176Z,100.00
2022-09-27T05:50:55.089Z,100.00
2022-09-27T05:53:24.103Z,100.00
2022-09-27T05:55:52.288Z,100.00
2022-09-27T05:58:28.439Z,100.00
2022-09-27T06:01:11.179Z,100.00
2022-09-27T06:04:01.868Z,100.00
2022-09-27T06:06:58.982Z,100.00
2022-09-27T06:09:28.156Z,100.00
2022-09-27T06:11:57.201Z,100.00
2022-09-27T06:14:27.104Z,100.00
2022-09-27T06:17:06.894Z,100.00
2022-09-27T06:19:38.369Z,100.00
2022-09-27T06:22:06.417Z,100.00
2022-09-27T06:24:42.776Z,100.00
2022-09-27T06:27:19.234Z,100.00
2022-09-27T06:30:16.952Z,100.00
2022-09-27T06:32:57.176Z,100.00
2022-09-27T06:35:36.682Z,100.00
2022-09-27T06:38:07.424Z,100.00
2022-09-27T06:40:37.667Z,100.00
2022-09-27T06:43:19.809Z,100.00
2022-09-27T06:46:06.738Z,100.00
2022-09-27T06:48:53.693Z,100.00
2022-09-27T06:51:23.165Z,100.00
2022-09-27T06:53:51.355Z,100.00
2022-09-27T06:56:20.067Z,100.00
2022-09-27T06:59:12.328Z,100.00
2022-09-27T07:01:44.027Z,100.00
2022-09-27T07:04:22.768Z,100.00
2022-09-27T07:07:00.476Z,100.00
2022-09-27T07:09:33.355Z,100.00
2022-09-27T07:12:05.701Z,100.00
2022-09-27T07:14:35.401Z,100.00
2022-09-27T07:17:05.041Z,100.00
2022-09-27T07:19:40.754Z,100.00
2022-09-27T07:22:11.832Z,100.00
2022-09-27T07:24:41.500Z,100.00
2022-09-27T07:27:10.181Z,100.00
2022-09-27T07:29:38.394Z,100.00
2022-09-27T07:32:06.556Z,100.00
2022-09-27T07:34:35.257Z,100.00
2022-09-27T07:37:05.713Z,100.00
2022-09-27T07:39:40.049Z,100.00
2022-09-27T07:42:08.645Z,100.00
2022-09-27T07:45:12.745Z,100.00
2022-09-27T07:48:18.563Z,100.00
2022-09-27T07:51:32.480Z,100.00
2022-09-27T07:54:31.093Z,100.00
2022-09-27T07:57:55.044Z,100.00
2022-09-27T08:00:29.591Z,100.00
2022-09-27T08:03:01.618Z,100.00
2022-09-27T08:05:37.028Z,100.00
2022-09-27T08:08:19.359Z,100.00
2022-09-27T08:10:52.214Z,100.00
2022-09-27T08:13:46.412Z,100.00
2022-09-27T08:16:19.893Z,100.00
2022-09-27T08:19:11.635Z,100.00
2022-09-27T08:21:47.999Z,100.00
2022-09-27T08:24:36.678Z,100.00
2022-09-27T08:27:16.495Z,100.00
2022-09-27T08:29:51.417Z,100.00
2022-09-27T08:32:23.307Z,100.00
2022-09-27T08:34:55.676Z,100.00
2022-09-27T08:37:24.604Z,100.00
2022-09-27T08:43:12.462Z,100.00
2022-09-27T08:46:07.005Z,100.00
2022-09-27T08:48:42.065Z,100.00
2022-09-27T08:51:54.024Z,100.00
2022-09-27T08:54:56.433Z,100.00
2022-09-27T08:57:40.575Z,100.00
2022-09-27T09:00:14.053Z,100.00
2022-09-27T09:02:45.419Z,100.00
2022-09-27T09:05:22.154Z,100.00
2022-09-27T09:08:10.861Z,100.00
2022-09-27T09:11:19.987Z,100.00
2022-09-27T09:14:27.347Z,100.00
2022-09-27T09:17:05.907Z,100.00
2022-09-27T09:20:05.126Z,100.00
2022-09-27T09:23:34.467Z,100.00
2022-09-27T09:27:45.571Z,100.00
2022-09-27T09:31:12.942Z,100.00
2022-09-27T09:34:21.334Z,100.00
2022-09-27T09:37:02.431Z,100.00
2022-09-27T09:39:37.917Z,100.00
2022-09-27T09:43:21.188Z,100.00
2022-09-27T09:45:56.453Z,100.00
2022-09-27T09:48:31.351Z,100.00
2022-09-27T09:51:03.461Z,100.00
2022-09-27T09:53:41.706Z,100.00
2022-09-27T09:56:18.949Z,100.00
2022-09-27T09:58:53.028Z,100.00
2022-09-27T10:01:28.758Z,100.00
2022-09-27T10:03:57.518Z,100.00
2022-09-27T10:06:27.733Z,100.00
2022-09-27T10:08:58.624Z,100.00
2022-09-27T10:11:42.742Z,100.00
2022-09-27T10:14:17.157Z,100.00
2022-09-27T10:16:49.025Z,100.00
2022-09-27T10:19:26.427Z,100.00
2022-09-27T10:21:58.025Z,100.00
2022-09-27T10:24:28.468Z,100.00
2022-09-27T10:27:06.981Z,100.00
2022-09-27T10:29:39.855Z,100.00
2022-09-27T10:32:27.316Z,100.00
2022-09-27T10:35:36.908Z,100.00
2022-09-27T10:38:22.268Z,100.00
2022-09-27T10:40:59.177Z,100.00
2022-09-27T10:43:31.550Z,100.00
2022-09-27T10:46:23.394Z,100.00
2022-09-27T10:49:12.940Z,100.00
2022-09-27T10:51:41.880Z,100.00
2022-09-27T10:54:22.374Z,100.00
2022-09-27T10:57:06.388Z,100.00
2022-09-27T10:59:40.822Z,100.00
2022-09-27T11:02:21.307Z,100.00
2022-09-27T11:05:15.354Z,100.00
2022-09-27T11:07:53.434Z,100.00
2022-09-27T11:10:28.876Z,100.00
2022-09-27T11:13:12.892Z,100.00
2022-09-27T11:15:59.643Z,100.00
2022-09-27T11:18:35.405Z,100.00
2022-09-27T11:21:15.278Z,100.00
2022-09-27T11:24:04.117Z,100.00
2022-09-27T11:26:45.559Z,100.00
2022-09-27T11:29:26.885Z,100.00
2022-09-27T11:32:35.015Z,100.00
2022-09-27T11:35:36.962Z,100.00
2022-09-27T11:38:40.906Z,100.00
2022-09-27T11:41:30.229Z,100.00
2022-09-27T11:44:28.861Z,100.00
2022-09-27T11:47:06.518Z,100.00
2022-09-27T11:49:56.660Z,100.00
2022-09-27T11:52:38.836Z,100.00
2022-09-27T11:55:24.877Z,100.00
2022-09-27T11:58:04.107Z,100.00
2022-09-27T12:00:49.352Z,100.00
2022-09-27T12:03:58.976Z,100.00
2022-09-27T12:06:40.463Z,100.00
2022-09-27T12:09:13.489Z,100.00
2022-09-27T12:11:45.721Z,100.00
2022-09-27T12:14:24.710Z,100.00
2022-09-27T12:16:58.858Z,100.00
2022-09-27T12:19:32.386Z,100.00
2022-09-27T12:22:08.247Z,100.00
2022-09-27T12:24:41.460Z,100.00
2022-09-27T12:27:37.896Z,100.00
2022-09-27T12:30:12.836Z,100.00
2022-09-27T12:32:50.101Z,100.00
2022-09-27T12:35:20.875Z,100.00
2022-09-27T12:37:53.893Z,100.00
2022-09-27T12:40:27.987Z,100.00
2022-09-27T12:43:03.377Z,100.00
2022-09-27T12:45:55.999Z,100.00
2022-09-27T12:48:36.734Z,100.00
2022-09-27T12:51:11.599Z,100.00
2022-09-27T12:53:56.620Z,100.00
2022-09-27T12:56:42.709Z,100.00
2022-09-27T12:59:29.401Z,100.00
2022-09-27T13:03:11.224Z,100.00
2022-09-27T13:06:00.420Z,100.00
2022-09-27T13:08:54.411Z,100.00
2022-09-27T13:11:39.525Z,100.00
2022-09-27T13:14:21.029Z,100.00
2022-09-27T13:16:51.470Z,100.00
2022-09-27T13:19:45.809Z,100.00
2022-09-27T13:22:44.215Z,100.00
2022-09-27T13:25:55.411Z,100.00
2022-09-27T13:29:00.756Z,100.00
2022-09-27T13:32:14.944Z,100.00
2022-09-27T13:35:20.536Z,100.00
2022-09-27T13:37:59.042Z,100.00
2022-09-27T13:40:34.043Z,100.00
2022-09-27T13:43:45.194Z,100.00
2022-09-27T13:46:36.254Z,100.00
2022-09-27T13:49:21.759Z,100.00
2022-09-27T13:52:21.952Z,100.00
2022-09-27T13:55:05.497Z,100.00
2022-09-27T13:57:56.817Z,100.00
2022-09-27T14:00:33.258Z,100.00
2022-09-27T14:03:23.155Z,100.00
2022-09-27T14:06:17.370Z,100.00
2022-09-27T14:08:49.462Z,100.00
2022-09-27T14:11:23.194Z,100.00
2022-09-27T14:13:53.263Z,100.00
2022-09-27T14:16:30.669Z,100.00
2022-09-27T14:18:59.786Z,100.00
2022-09-27T14:21:46.362Z,100.00
2022-09-27T14:24:31.005Z,100.00
2022-09-27T14:27:23.665Z,100.00
2022-09-27T14:30:00.955Z,100.00
2022-09-27T14:32:35.252Z,100.00
2022-09-27T14:35:36.951Z,100.00
2022-09-27T14:38:35.927Z,100.00
2022-09-27T14:41:46.071Z,100.00
2022-09-27T14:44:20.445Z,100.00
2022-09-27T14:47:09.659Z,100.00
2022-09-27T14:49:47.116Z,100.00
2022-09-27T14:52:20.824Z,100.00
2022-09-27T14:55:00.384Z,100.00
2022-09-27T14:57:50.807Z,100.00
2022-09-27T15:00:24.714Z,100.00
2022-09-27T15:02:59.127Z,100.00
2022-09-27T15:05:36.846Z,100.00
2022-09-27T15:08:17.509Z,100.00
2022-09-27T15:10:46.142Z,100.00
2022-09-27T15:13:19.722Z,100.00
2022-09-27T15:15:49.836Z,100.00
2022-09-27T15:18:42.911Z,100.00
2022-09-27T15:21:47.828Z,100.00
2022-09-27T15:24:38.164Z,100.00
2022-09-27T15:32:01.389Z,100.00
2022-09-27T15:34:51.140Z,100.00
2022-09-27T15:37:57.682Z,100.00
2022-09-27T15:41:07.263Z,100.00
2022-09-27T15:43:48.055Z,100.00
2022-09-27T15:52:01.053Z,100.00
2022-09-27T15:54:33.309Z,100.00
2022-09-27T15:57:04.670Z,100.00
2022-09-27T15:59:35.115Z,100.00
2022-09-27T16:02:08.360Z,100.00
2022-09-27T16:04:39.258Z,100.00
2022-09-27T16:07:09.913Z,100.00
2022-09-27T16:09:39.746Z,100.00
2022-09-27T16:12:07.860Z,100.00
2022-09-27T16:14:35.785Z,100.00
2022-09-27T16:17:03.792Z,100.00
2022-09-27T16:19:31.799Z,100.00
2022-09-27T16:22:03.414Z,100.00
2022-09-27T16:24:32.236Z,100.00
2022-09-27T16:27:01.789Z,100.00
2022-09-27T16:29:32.921Z,100.00
2022-09-27T16:32:01.699Z,100.00
2022-09-27T16:34:29.727Z,100.00
2022-09-27T16:37:01.663Z,100.00
2022-09-27T16:39:32.250Z,100.00
2022-09-27T16:42:05.032Z,100.00
2022-09-27T16:44:45.281Z,100.00
2022-09-27T16:47:13.448Z,100.00
2022-09-27T16:50:01.981Z,100.00
2022-09-27T16:52:38.580Z,100.00
2022-09-27T16:55:07.832Z,100.00
2022-09-27T16:57:38.342Z,100.00
2022-09-27T17:00:07.977Z,100.00
2022-09-27T17:02:36.120Z,100.00
2022-09-27T17:05:04.312Z,100.00
2022-09-27T17:07:32.499Z,100.00
2022-09-27T17:10:00.525Z,100.00
2022-09-27T17:12:28.659Z,100.00
2022-09-27T17:14:58.299Z,100.00
2022-09-27T17:17:26.853Z,100.00
2022-09-27T17:19:54.814Z,100.00
2022-09-27T17:22:22.894Z,100.00
2022-09-27T17:24:51.290Z,100.00
2022-09-27T17:27:22.877Z,100.00
2022-09-27T17:29:53.203Z,100.00
2022-09-27T17:32:24.304Z,100.00
2022-09-27T17:34:52.388Z,100.00
2022-09-27T17:37:20.697Z,100.00
2022-09-27T17:39:48.813Z,100.00
2022-09-27T17:42:18.931Z,100.00
2022-09-27T17:44:47.597Z,100.00
2022-09-27T17:47:37.402Z,100.00
2022-09-27T17:50:25.811Z,100.00
2022-09-27T17:52:54.430Z,100.00
2022-09-27T17:55:28.746Z,100.00
2022-09-27T17:59:20.593Z,100.00
2022-09-27T18:06:44.319Z,100.00
2022-09-27T18:09:42.015Z,100.00
2022-09-27T18:12:47.648Z,100.00
2022-09-27T18:15:40.068Z,100.00
2022-09-27T18:18:11.309Z,100.00
2022-09-27T18:20:39.909Z,100.00
2022-09-27T18:23:37.305Z,100.00
2022-09-27T18:26:19.435Z,100.00
2022-09-27T18:29:09.091Z,100.00
2022-09-27T18:31:39.620Z,100.00
2022-09-27T18:34:33.713Z,100.00
2022-09-27T18:37:02.086Z,100.00
2022-09-27T18:39:32.391Z,100.00
2022-09-27T18:42:02.049Z,100.00
2022-09-27T18:44:33.464Z,100.00
2022-09-27T18:47:05.862Z,100.00
2022-09-27T18:53:15.570Z,100.00
2022-09-27T18:55:56.410Z,100.00
2022-09-27T18:58:39.078Z,100.00
2022-09-27T19:01:17.701Z,100.00
2022-09-27T19:03:46.120Z,100.00
2022-09-27T19:06:44.980Z,100.00
2022-09-27T19:10:46.680Z,100.00
2022-09-27T19:13:50.958Z,100.00
2022-09-27T19:17:42.259Z,100.00
2022-09-27T19:20:12.287Z,100.00
2022-09-27T19:22:40.447Z,100.00
2022-09-27T19:25:38.132Z,100.00
2022-09-27T19:28:09.060Z,100.00
2022-09-27T19:31:17.693Z,100.00
2022-09-27T19:33:56.146Z,100.00
2022-09-27T19:36:38.445Z,100.00
2022-09-27T19:39:10.027Z,100.00
2022-09-27T19:41:38.735Z,100.00
2022-09-27T19:44:09.761Z,100.00
2022-09-27T19:46:39.305Z,100.00
2022-09-27T19:49:07.470Z,100.00
2022-09-27T19:51:37.777Z,100.00
2022-09-27T19:54:06.377Z,100.00
2022-09-27T19:56:35.022Z,100.00
2022-09-27T19:59:31.231Z,100.00
2022-09-27T20:02:07.675Z,100.00
2022-09-27T20:04:53.980Z,100.00
2022-09-27T20:07:59.925Z,100.00
2022-09-27T20:10:38.042Z,100.00
2022-09-27T20:16:10.553Z,100.00
2022-09-27T20:18:41.234Z,100.00
2022-09-27T20:21:09.462Z,100.00
2022-09-27T20:23:39.299Z,100.00
2022-09-27T20:26:09.610Z,100.00
2022-09-27T20:28:43.040Z,100.00
2022-09-27T20:31:13.080Z,99.58
2022-09-27T20:33:46.497Z,96.16
2022-09-27T20:36:16.243Z,91.93
2022-09-27T20:39:02.017Z,87.42
2022-09-27T20:41:31.861Z,85.17
2022-09-27T20:44:01.826Z,82.36
2022-09-27T20:46:29.908Z,79.97
2022-09-27T20:48:59.774Z,77.10
2022-09-27T20:51:28.902Z,74.97
2022-09-27T20:53:58.980Z,72.71
2022-09-27T20:56:30.006Z,72.98
2022-09-27T20:58:59.654Z,73.77
2022-09-27T21:01:29.228Z,73.46
2022-09-27T21:03:58.451Z,73.30
2022-09-27T21:06:28.739Z,73.18
2022-09-27T21:08:59.346Z,73.82
2022-09-27T21:11:28.041Z,77.32
2022-09-27T21:13:56.199Z,79.30
2022-09-27T21:16:26.254Z,79.10
2022-09-27T21:18:57.205Z,78.60
2022-09-27T21:21:26.187Z,78.63
2022-09-27T21:23:56.555Z,75.88
2022-09-27T21:26:27.593Z,74.72
2022-09-27T21:28:57.291Z,73.84
2022-09-27T21:31:26.907Z,72.43
2022-09-27T21:33:58.627Z,70.40
2022-09-27T21:36:28.381Z,68.57
2022-09-27T21:38:57.289Z,67.77
2022-09-27T21:41:27.973Z,66.21
2022-09-27T21:43:56.414Z,66.45
2022-09-27T21:46:25.714Z,65.24
2022-09-27T21:48:55.986Z,64.35
2022-09-27T21:51:26.125Z,64.10
2022-09-27T21:53:55.970Z,63.69
2022-09-27T21:56:26.803Z,63.21
2022-09-27T21:58:54.898Z,62.67
2022-09-27T22:01:24.554Z,62.17
2022-09-27T22:03:55.622Z,62.35
2022-09-27T22:06:25.489Z,62.45
2022-09-27T22:08:54.419Z,61.79
2022-09-27T22:11:24.285Z,61.41
2022-09-27T22:13:54.196Z,61.18
2022-09-27T22:16:23.380Z,61.15
2022-09-27T22:18:53.525Z,61.18
2022-09-27T22:21:24.010Z,60.77
2022-09-27T22:23:55.417Z,60.85
2022-09-27T22:26:24.920Z,60.84
2022-09-27T22:28:54.533Z,60.78
2022-09-27T22:31:23.315Z,60.42
2022-09-27T22:33:52.377Z,60.50
2022-09-27T22:36:20.463Z,60.01
2022-09-27T22:38:49.461Z,59.89
2022-09-27T22:41:17.552Z,59.88
2022-09-27T22:43:45.748Z,59.73
2022-09-27T22:46:15.241Z,59.36
2022-09-27T22:48:43.489Z,59.29
2022-09-27T22:51:11.908Z,58.97
2022-09-27T22:53:40.051Z,59.09
2022-09-27T22:56:10.080Z,59.18
2022-09-27T22:58:38.855Z,58.96
2022-09-27T23:01:11.633Z,58.69
2022-09-27T23:03:41.236Z,58.66
2022-09-27T23:06:09.436Z,58.65
2022-09-27T23:08:38.609Z,58.58
2022-09-27T23:11:08.220Z,58.27
2022-09-27T23:13:38.688Z,58.14
2022-09-27T23:16:09.263Z,58.24
2022-09-27T23:18:38.221Z,58.12
2022-09-27T23:21:09.391Z,58.09
2022-09-27T23:23:40.692Z,58.09
2022-09-27T23:26:10.621Z,57.85
2022-09-27T23:28:39.293Z,57.99
2022-09-27T23:31:09.148Z,57.79
2022-09-27T23:33:37.986Z,57.96
2022-09-27T23:36:10.298Z,58.02
2022-09-27T23:38:40.305Z,58.01
2022-09-27T23:41:09.329Z,58.21
2022-09-27T23:43:40.098Z,58.26
2022-09-27T23:46:10.809Z,58.37
2022-09-27T23:48:39.941Z,58.50
2022-09-27T23:51:13.215Z,58.47
2022-09-27T23:53:41.669Z,58.71
2022-09-27T23:56:13.105Z,58.99
2022-09-27T23:58:42.732Z,59.05
